首页
METAR-TAF:

METAR-TAF

机场 :

Tucumcari Municipal Airport

Tucumcari, 新墨西哥州, 美国

纬度: 35-10-58N, 经度: 103-36-11W, 海拔: 1239米

当前天气观测

该预报发布于49分钟前的14:53 UTC
风速18节,风向西南,有时为23节阵风
温度 29°C
湿度 33%
气压 1017 hPa
能見度: 16.1公里
天空无云

METAR: KTCC 241453Z AUTO 22018G23KT 10SM CLR 29/11 A3003 RMK AO2 SLP097 T02940111 50003

时间: 09:42 (15:42 UTC)

预报

该预报发布于4小时和22分钟前的11:20 UTC
预报有效从24日的 12点(UTC)到 25日的 12点(UTC)
风速7节,风向西南
能見度: 10公里
散云层高于12000英尺
从 24日的 1400点(UTC)
风速13节,风向西南,有时为21节阵风
能見度: 10公里
少量云层高于12000英尺
从 25日的 0000点(UTC)
风速11节,风向
能見度: 10公里
散云层高于12000英尺
散云层高于20000英尺

TAF: KTCC 241120Z 2412/2512 22007KT P6SM SCT120 FM241400 22013G21KT P6SM FEW120 FM250000 19011KT P6SM SCT120 SCT200

超过4000个机场的气象观测和天气预报(METAR&TAF报告)。

可查询的气象台以黄色和红色小点在地图上表示。

将鼠标移到小点上方,可查看气象台名称。

然后点击查看天气观测和预报。

如需切换地图:点击带黑十字的绿色按钮放大地图;点击带横线的绿色按钮缩小地图;或者点击绿色箭头查看邻近地区的地图。


METAR-TAF: